createdAt,value
2018-07-14T00:02:16.547Z,86.40
2018-07-14T00:04:44.881Z,86.70
2018-07-14T00:07:12.960Z,86.80
2018-07-14T00:09:41.079Z,86.90
2018-07-14T00:12:09.147Z,87.10
2018-07-14T00:14:37.214Z,87.10
2018-07-14T00:17:05.679Z,87.20
2018-07-14T00:19:33.754Z,88.30
2018-07-14T00:22:01.819Z,88.00
2018-07-14T00:24:30.026Z,88.90
2018-07-14T00:26:58.043Z,88.80
2018-07-14T00:29:26.406Z,88.90
2018-07-14T00:31:54.478Z,88.60
2018-07-14T00:34:22.589Z,88.40
2018-07-14T00:36:50.654Z,88.50
2018-07-14T00:39:18.722Z,88.50
2018-07-14T00:41:46.804Z,89.20
2018-07-14T00:44:14.887Z,88.80
2018-07-14T00:46:42.951Z,88.80
2018-07-14T00:49:11.020Z,89.10
2018-07-14T00:51:39.111Z,89.00
2018-07-14T00:54:07.462Z,89.00
2018-07-14T00:56:35.530Z,89.10
2018-07-14T00:59:03.591Z,89.60
2018-07-14T01:01:31.670Z,89.60
2018-07-14T01:03:59.738Z,89.60
2018-07-14T01:06:28.105Z,90.10
2018-07-14T01:08:56.257Z,90.10
2018-07-14T01:11:24.346Z,90.10
2018-07-14T01:13:52.430Z,90.10
2018-07-14T01:16:20.511Z,90.10
2018-07-14T01:18:48.603Z,90.20
2018-07-14T01:21:16.691Z,90.10
2018-07-14T01:23:44.762Z,90.20
2018-07-14T01:26:12.941Z,90.40
2018-07-14T01:28:41.014Z,90.40
2018-07-14T01:31:09.082Z,90.60
2018-07-14T01:33:37.168Z,90.70
2018-07-14T01:36:05.255Z,90.80
2018-07-14T01:38:33.331Z,90.90
2018-07-14T01:41:01.422Z,90.80
2018-07-14T01:43:29.513Z,90.90
2018-07-14T01:45:57.596Z,90.90
2018-07-14T01:48:25.667Z,90.90
2018-07-14T01:50:53.745Z,91.10
2018-07-14T01:53:21.876Z,91.00
2018-07-14T01:55:50.166Z,90.90
2018-07-14T01:58:18.350Z,91.00
2018-07-14T02:00:46.450Z,91.10
2018-07-14T02:03:14.539Z,91.20
2018-07-14T02:05:42.620Z,91.20
2018-07-14T02:08:10.729Z,91.20
2018-07-14T02:10:38.806Z,91.20
2018-07-14T02:13:06.964Z,91.20
2018-07-14T02:15:35.052Z,91.20
2018-07-14T02:18:03.122Z,91.20
2018-07-14T02:20:31.217Z,91.20
2018-07-14T02:22:59.299Z,91.20
2018-07-14T02:25:27.358Z,91.10
2018-07-14T02:27:55.434Z,91.30
2018-07-14T02:30:23.526Z,91.60
2018-07-14T02:32:51.766Z,91.60
2018-07-14T02:35:19.934Z,91.80
2018-07-14T02:37:48.026Z,91.70
2018-07-14T02:40:16.149Z,91.70
2018-07-14T02:42:44.226Z,91.70
2018-07-14T02:45:12.747Z,91.70
2018-07-14T02:47:40.822Z,91.70
2018-07-14T02:50:08.882Z,91.60
2018-07-14T02:52:36.954Z,92.00
2018-07-14T02:55:05.176Z,91.70
2018-07-14T02:57:33.591Z,91.70
2018-07-14T03:00:01.666Z,91.90
2018-07-14T03:02:29.734Z,91.90
2018-07-14T03:04:57.810Z,91.80
2018-07-14T03:07:25.884Z,91.80
2018-07-14T03:09:54.210Z,91.80
2018-07-14T03:12:22.282Z,91.80
2018-07-14T03:14:50.391Z,91.80
2018-07-14T03:17:18.477Z,91.80
2018-07-14T03:19:46.546Z,92.30
2018-07-14T03:22:14.925Z,92.30
2018-07-14T03:24:43.071Z,92.20
2018-07-14T03:27:11.262Z,92.00
2018-07-14T03:29:39.332Z,92.00
2018-07-14T03:32:07.420Z,92.30
2018-07-14T03:34:35.804Z,91.90
2018-07-14T03:37:03.942Z,91.80
2018-07-14T03:39:32.028Z,91.80
2018-07-14T03:42:00.180Z,91.80
2018-07-14T03:44:28.190Z,91.70
2018-07-14T03:46:56.672Z,91.80
2018-07-14T03:49:24.748Z,91.70
2018-07-14T03:51:52.827Z,91.70
2018-07-14T03:54:20.903Z,91.70
2018-07-14T03:56:49.056Z,91.70
2018-07-14T03:59:17.095Z,91.80
2018-07-14T04:01:45.159Z,91.80
2018-07-14T04:04:13.274Z,91.80
2018-07-14T04:06:41.398Z,91.80
2018-07-14T04:11:37.402Z,91.90
2018-07-14T04:14:05.483Z,92.40
2018-07-14T04:19:01.582Z,92.20
2018-07-14T04:21:29.664Z,92.10
2018-07-14T04:23:57.738Z,92.10
2018-07-14T04:26:25.826Z,92.00
2018-07-14T04:28:53.894Z,92.00
2018-07-14T04:31:21.970Z,92.00
2018-07-14T04:33:50.044Z,92.00
2018-07-14T04:36:18.115Z,92.00
2018-07-14T04:38:46.242Z,92.00
2018-07-14T04:41:14.329Z,92.00
2018-07-14T04:43:42.533Z,92.00
2018-07-14T04:46:10.678Z,92.00
2018-07-14T04:48:38.835Z,91.90
2018-07-14T04:51:06.924Z,91.90
2018-07-14T04:53:34.995Z,91.90
2018-07-14T04:56:03.082Z,91.90
2018-07-14T04:58:31.150Z,91.90
2018-07-14T05:00:59.231Z,92.10
2018-07-14T05:03:27.313Z,92.10
2018-07-14T05:05:55.389Z,92.00
2018-07-14T05:08:23.758Z,92.00
2018-07-14T05:10:51.850Z,92.00
2018-07-14T05:13:19.977Z,92.00
2018-07-14T05:15:48.082Z,92.00
2018-07-14T05:18:16.231Z,92.00
2018-07-14T05:20:44.330Z,92.00
2018-07-14T05:23:12.438Z,92.00
2018-07-14T05:25:40.577Z,91.90
2018-07-14T05:28:08.744Z,91.90
2018-07-14T05:30:37.142Z,91.90
2018-07-14T05:33:05.242Z,91.90
2018-07-14T05:35:33.685Z,91.80
2018-07-14T05:38:01.852Z,91.80
2018-07-14T05:40:29.991Z,91.80
2018-07-14T05:42:58.382Z,91.60
2018-07-14T05:45:26.687Z,91.70
2018-07-14T05:47:54.770Z,91.60
2018-07-14T05:50:22.869Z,91.50
2018-07-14T05:52:51.164Z,91.50
2018-07-14T05:55:19.543Z,91.30
2018-07-14T05:57:47.614Z,91.10
2018-07-14T06:00:15.695Z,90.80
2018-07-14T06:02:43.775Z,90.90
2018-07-14T06:05:12.076Z,90.80
2018-07-14T06:07:40.697Z,90.80
2018-07-14T06:10:08.699Z,90.60
2018-07-14T06:12:36.803Z,90.60
2018-07-14T06:15:05.087Z,90.40
2018-07-14T06:17:33.211Z,90.20
2018-07-14T06:20:01.306Z,90.10
2018-07-14T06:22:29.614Z,90.00
2018-07-14T06:24:57.678Z,89.80
2018-07-14T06:27:25.746Z,89.70
2018-07-14T06:29:53.831Z,89.60
2018-07-14T06:32:22.230Z,89.30
2018-07-14T06:34:50.492Z,88.80
2018-07-14T06:37:18.555Z,88.30
2018-07-14T06:39:46.719Z,87.80
2018-07-14T06:42:14.817Z,87.60
2018-07-14T06:44:42.934Z,87.00
2018-07-14T06:49:39.122Z,85.70
2018-07-14T06:52:07.312Z,85.80
2018-07-14T06:54:35.807Z,85.40
2018-07-14T06:57:03.880Z,85.00
2018-07-14T06:59:31.978Z,84.50
2018-07-14T07:02:00.051Z,83.90
2018-07-14T07:04:28.162Z,83.50
2018-07-14T07:06:56.510Z,83.00
2018-07-14T07:09:24.587Z,82.60
2018-07-14T07:11:59.203Z,81.80
2018-07-14T07:16:55.221Z,81.10
2018-07-14T07:19:23.292Z,80.80
2018-07-14T07:21:51.523Z,80.10
2018-07-14T07:24:19.594Z,79.30
2018-07-14T07:26:47.687Z,79.10
2018-07-14T07:29:15.758Z,78.90
2018-07-14T07:31:43.875Z,78.80
2018-07-14T07:34:12.078Z,78.30
2018-07-14T07:36:41.722Z,77.80
2018-07-14T07:39:09.839Z,77.60
2018-07-14T07:41:40.133Z,77.20
2018-07-14T07:44:08.448Z,76.80
2018-07-14T07:46:36.876Z,77.10
2018-07-14T07:49:05.431Z,76.30
2018-07-14T07:51:33.545Z,76.20
2018-07-14T07:54:01.624Z,75.70
2018-07-14T07:56:29.703Z,75.20
2018-07-14T07:58:57.828Z,75.00
2018-07-14T08:01:26.127Z,74.60
2018-07-14T08:03:54.238Z,74.40
2018-07-14T08:06:22.367Z,73.80
2018-07-14T08:08:50.468Z,73.30
2018-07-14T08:11:18.562Z,73.20
2018-07-14T08:16:14.787Z,72.30
2018-07-14T08:18:42.858Z,72.10
2018-07-14T08:21:10.954Z,72.10
2018-07-14T08:23:39.440Z,71.90
2018-07-14T08:26:07.579Z,71.50
2018-07-14T08:28:35.654Z,71.10
2018-07-14T08:31:03.921Z,70.90
2018-07-14T08:33:32.002Z,70.80
2018-07-14T08:36:00.100Z,71.20
2018-07-14T08:38:28.476Z,70.10
2018-07-14T08:40:56.599Z,69.60
2018-07-14T08:43:24.700Z,69.30
2018-07-14T08:45:52.792Z,68.60
2018-07-14T08:48:21.316Z,68.50
2018-07-14T08:50:49.878Z,68.80
2018-07-14T08:53:17.947Z,67.40
2018-07-14T08:55:46.037Z,67.30
2018-07-14T08:58:14.123Z,67.00
2018-07-14T09:00:42.196Z,67.00
2018-07-14T09:03:10.589Z,66.30
2018-07-14T09:05:38.735Z,65.80
2018-07-14T09:08:06.816Z,65.40
2018-07-14T09:10:34.918Z,65.30
2018-07-14T09:13:03.062Z,65.10
2018-07-14T09:15:31.467Z,64.90
2018-07-14T09:17:59.562Z,64.80
2018-07-14T09:20:27.633Z,64.10
2018-07-14T09:22:55.734Z,63.90
2018-07-14T09:25:24.694Z,64.10
2018-07-14T09:27:53.145Z,64.00
2018-07-14T09:30:21.212Z,63.80
2018-07-14T09:32:49.380Z,62.90
2018-07-14T09:35:17.514Z,62.90
2018-07-14T09:37:45.637Z,62.70
2018-07-14T09:40:13.751Z,62.30
2018-07-14T09:42:41.884Z,61.90
2018-07-14T09:45:10.020Z,61.60
2018-07-14T09:47:38.135Z,61.30
2018-07-14T09:50:06.231Z,60.70
2018-07-14T09:52:34.358Z,60.90
2018-07-14T09:55:02.501Z,60.60
2018-07-14T09:57:30.655Z,59.30
2018-07-14T09:59:58.731Z,59.20
2018-07-14T10:02:26.812Z,59.00
2018-07-14T10:07:22.897Z,58.20
2018-07-14T10:09:50.983Z,58.30
2018-07-14T10:12:19.083Z,58.10
2018-07-14T10:14:47.179Z,58.20
2018-07-14T10:17:15.300Z,56.70
2018-07-14T10:19:43.357Z,56.40
2018-07-14T10:22:11.475Z,55.50
2018-07-14T10:24:39.566Z,55.70
2018-07-14T10:27:07.639Z,55.50
2018-07-14T10:29:35.794Z,55.60
2018-07-14T10:32:03.886Z,55.30
2018-07-14T10:34:32.355Z,54.60
2018-07-14T10:37:00.681Z,54.30
2018-07-14T10:39:28.759Z,54.30
2018-07-14T10:41:57.735Z,54.00
2018-07-14T10:44:25.766Z,53.30
2018-07-14T10:46:53.906Z,53.00
2018-07-14T10:49:21.974Z,52.70
2018-07-14T10:51:50.078Z,52.10
2018-07-14T10:54:18.153Z,52.10
2018-07-14T10:56:46.247Z,51.90
2018-07-14T10:59:14.614Z,51.80
2018-07-14T11:01:42.729Z,50.90
2018-07-14T11:04:10.819Z,51.00
2018-07-14T11:06:38.899Z,48.80
2018-07-14T11:09:07.742Z,49.50
2018-07-14T11:11:36.182Z,49.70
2018-07-14T11:14:04.258Z,49.30
2018-07-14T11:16:32.426Z,49.00
2018-07-14T11:19:00.506Z,48.70
2018-07-14T11:21:28.668Z,49.10
2018-07-14T11:23:57.247Z,49.20
2018-07-14T11:26:25.320Z,48.50
2018-07-14T11:28:54.031Z,48.10
2018-07-14T11:31:22.131Z,48.00
2018-07-14T11:33:50.378Z,47.80
2018-07-14T11:36:19.347Z,47.10
2018-07-14T11:38:47.432Z,46.60
2018-07-14T11:41:15.697Z,46.10
2018-07-14T11:43:43.863Z,46.20
2018-07-14T11:46:11.947Z,46.00
2018-07-14T11:48:41.378Z,46.50
2018-07-14T11:51:09.470Z,46.60
2018-07-14T11:53:37.623Z,46.50
2018-07-14T11:56:05.700Z,46.50
2018-07-14T11:58:33.798Z,46.30
2018-07-14T12:01:01.865Z,45.60
2018-07-14T12:03:30.086Z,45.40
2018-07-14T12:05:58.387Z,45.30
2018-07-14T12:08:26.467Z,45.20
2018-07-14T12:10:54.530Z,45.60
2018-07-14T12:13:22.611Z,44.50
2018-07-14T12:15:50.680Z,43.90
2018-07-14T12:18:18.755Z,44.00
2018-07-14T12:20:46.839Z,44.10
2018-07-14T12:23:15.786Z,44.00
2018-07-14T12:25:43.862Z,43.50
2018-07-14T12:28:11.954Z,41.50
2018-07-14T12:30:40.117Z,42.30
2018-07-14T12:33:08.109Z,41.40
2018-07-14T12:35:36.420Z,41.50
2018-07-14T12:38:04.815Z,41.70
2018-07-14T12:40:32.898Z,42.30
2018-07-14T12:43:01.164Z,42.80
2018-07-14T12:45:29.249Z,43.00
2018-07-14T12:47:57.321Z,42.90
2018-07-14T12:50:25.406Z,42.50
2018-07-14T12:52:53.514Z,42.10
2018-07-14T12:55:21.594Z,41.40
2018-07-14T13:00:17.578Z,41.50
2018-07-14T13:02:45.655Z,41.90
2018-07-14T13:05:13.721Z,42.30
2018-07-14T13:07:42.182Z,42.90
2018-07-14T13:10:10.181Z,42.70
2018-07-14T13:12:38.333Z,42.00
2018-07-14T13:15:06.860Z,41.90
2018-07-14T13:17:34.996Z,42.10
2018-07-14T13:20:03.094Z,42.70
2018-07-14T13:22:31.298Z,43.00
2018-07-14T13:27:27.354Z,42.30
2018-07-14T13:29:55.431Z,42.60
2018-07-14T13:32:23.518Z,43.40
2018-07-14T13:34:51.607Z,43.60
2018-07-14T13:37:19.687Z,43.90
2018-07-14T13:39:47.761Z,43.80
2018-07-14T13:42:15.851Z,43.60
2018-07-14T13:44:43.933Z,43.60
2018-07-14T13:47:12.027Z,43.90
2018-07-14T13:49:40.121Z,44.00
2018-07-14T13:52:08.342Z,44.20
2018-07-14T13:54:36.578Z,44.50
2018-07-14T13:57:04.952Z,44.10
2018-07-14T13:59:33.026Z,43.70
2018-07-14T14:02:01.111Z,43.50
2018-07-14T14:04:29.210Z,43.70
2018-07-14T14:06:57.341Z,43.50
2018-07-14T14:09:25.435Z,42.00
2018-07-14T14:11:53.545Z,41.60
2018-07-14T14:14:21.855Z,41.20
2018-07-14T14:19:17.803Z,41.20
2018-07-14T14:21:45.891Z,40.70
2018-07-14T14:24:14.023Z,40.60
2018-07-14T14:26:42.347Z,40.20
2018-07-14T14:29:10.523Z,40.30
2018-07-14T14:31:38.595Z,40.30
2018-07-14T14:34:06.679Z,40.40
2018-07-14T14:36:34.746Z,40.00
2018-07-14T14:39:03.644Z,39.80
2018-07-14T14:41:31.699Z,40.00
2018-07-14T14:43:59.882Z,39.30
2018-07-14T14:46:27.994Z,38.90
2018-07-14T14:48:56.166Z,38.90
2018-07-14T14:51:24.254Z,38.80
2018-07-14T14:53:52.592Z,38.20
2018-07-14T14:56:20.682Z,37.90
2018-07-14T14:58:49.062Z,37.80
2018-07-14T15:01:17.146Z,37.70
2018-07-14T15:03:48.446Z,37.90
2018-07-14T15:06:16.873Z,37.00
2018-07-14T15:08:45.036Z,37.20
2018-07-14T15:11:13.228Z,37.40
2018-07-14T15:13:52.992Z,37.60
2018-07-14T15:16:21.402Z,37.30
2018-07-14T15:18:49.631Z,37.00
2018-07-14T15:21:17.729Z,36.80
2018-07-14T15:23:45.791Z,36.50
2018-07-14T15:26:14.083Z,36.10
2018-07-14T15:28:42.531Z,35.90
2018-07-14T15:31:10.605Z,36.00
2018-07-14T15:33:38.761Z,36.40
2018-07-14T15:36:06.884Z,34.70
2018-07-14T15:38:34.970Z,34.40
2018-07-14T15:41:03.040Z,34.70
2018-07-14T15:45:59.501Z,34.60
2018-07-14T15:48:27.551Z,34.10
2018-07-14T15:50:55.623Z,34.00
2018-07-14T15:53:23.696Z,33.60
2018-07-14T15:55:51.800Z,32.70
2018-07-14T15:58:20.321Z,33.80
2018-07-14T16:00:48.394Z,32.70
2018-07-14T16:03:16.996Z,32.30
2018-07-14T16:05:45.105Z,31.70
2018-07-14T16:08:13.381Z,31.20
2018-07-14T16:10:41.487Z,30.90
2018-07-14T16:13:09.586Z,29.70
2018-07-14T16:15:37.685Z,29.80
2018-07-14T16:18:05.765Z,28.80
2018-07-14T16:20:33.821Z,29.30
2018-07-14T16:23:01.906Z,29.50
2018-07-14T16:25:30.021Z,29.40
2018-07-14T16:27:58.398Z,29.10
2018-07-14T16:30:26.486Z,29.10
2018-07-14T16:32:54.611Z,29.30
2018-07-14T16:35:22.686Z,28.90
2018-07-14T16:37:50.766Z,29.20
2018-07-14T16:40:19.174Z,29.70
2018-07-14T16:42:47.271Z,28.00
2018-07-14T16:45:15.362Z,28.40
2018-07-14T16:47:43.637Z,28.90
2018-07-14T16:50:11.995Z,30.50
2018-07-14T16:52:40.332Z,30.40
2018-07-14T16:55:08.403Z,30.00
2018-07-14T16:57:36.501Z,30.00
2018-07-14T17:00:04.914Z,29.90
2018-07-14T17:07:29.144Z,32.90
2018-07-14T17:09:57.210Z,34.80
2018-07-14T17:12:25.442Z,36.60
2018-07-14T17:14:53.598Z,38.10
2018-07-14T17:17:22.903Z,39.50
2018-07-14T17:19:50.988Z,40.60
2018-07-14T17:22:19.198Z,41.50
2018-07-14T17:24:47.247Z,42.40
2018-07-14T17:27:15.359Z,43.50
2018-07-14T17:29:43.504Z,44.50
2018-07-14T17:32:11.647Z,45.40
2018-07-14T17:34:39.804Z,45.90
2018-07-14T17:37:07.975Z,46.60
2018-07-14T17:39:36.060Z,47.30
2018-07-14T17:42:04.143Z,47.90
2018-07-14T17:44:32.242Z,48.10
2018-07-14T17:47:00.460Z,48.70
2018-07-14T17:49:28.562Z,49.30
2018-07-14T17:51:56.778Z,50.40
2018-07-14T17:56:52.894Z,51.00
2018-07-14T17:59:20.969Z,51.50
2018-07-14T18:01:49.035Z,51.90
2018-07-14T18:04:17.128Z,52.30
2018-07-14T18:06:46.287Z,52.40
2018-07-14T18:09:14.385Z,52.70
2018-07-14T18:11:42.454Z,53.60
2018-07-14T18:14:12.667Z,53.20
2018-07-14T18:16:40.839Z,53.70
2018-07-14T18:19:08.906Z,54.30
2018-07-14T18:21:36.984Z,54.70
2018-07-14T18:24:05.103Z,55.20
2018-07-14T18:26:33.183Z,56.00
2018-07-14T18:29:01.288Z,55.50
2018-07-14T18:34:03.704Z,56.00
2018-07-14T18:38:59.771Z,56.60
2018-07-14T18:41:27.899Z,57.00
2018-07-14T18:43:56.387Z,57.00
2018-07-14T18:46:24.450Z,57.00
2018-07-14T18:48:52.557Z,57.30
2018-07-14T18:51:20.641Z,57.50
2018-07-14T18:53:48.896Z,57.80
2018-07-14T18:56:17.494Z,57.80
2018-07-14T18:58:45.697Z,58.10
2018-07-14T19:01:13.822Z,58.30
2018-07-14T19:03:41.888Z,58.50
2018-07-14T19:06:10.038Z,58.80
2018-07-14T19:08:38.544Z,58.90
2018-07-14T19:11:06.563Z,58.90
2018-07-14T19:16:03.077Z,59.10
2018-07-14T19:18:31.234Z,59.40
2018-07-14T19:20:59.337Z,59.70
2018-07-14T19:23:27.412Z,59.90
2018-07-14T19:25:55.604Z,60.00
2018-07-14T19:28:23.529Z,61.10
2018-07-14T19:30:51.704Z,61.30
2018-07-14T19:33:19.879Z,61.30
2018-07-14T19:35:48.383Z,62.00
2018-07-14T19:38:16.555Z,61.80
2018-07-14T19:40:44.634Z,62.00
2018-07-14T19:43:12.791Z,62.30
2018-07-14T19:45:41.405Z,62.40
2018-07-14T19:48:10.364Z,62.60
2018-07-14T19:50:38.677Z,62.90
2018-07-14T19:53:07.247Z,63.00
2018-07-14T19:55:35.668Z,63.20
2018-07-14T19:58:03.579Z,63.60
2018-07-14T20:00:31.894Z,63.90
2018-07-14T20:02:59.964Z,64.20
2018-07-14T20:05:28.036Z,64.40
2018-07-14T20:07:56.131Z,64.60
2018-07-14T20:10:24.219Z,65.10
2018-07-14T20:12:52.302Z,65.10
2018-07-14T20:15:20.390Z,65.40
2018-07-14T20:17:48.471Z,65.60
2018-07-14T20:20:17.046Z,65.90
2018-07-14T20:22:45.817Z,66.10
2018-07-14T20:25:14.550Z,66.30
2018-07-14T20:27:42.726Z,66.40
2018-07-14T20:30:11.525Z,66.70
2018-07-14T20:32:39.868Z,66.80
2018-07-14T20:35:08.305Z,67.10
2018-07-14T20:37:36.395Z,67.10
2018-07-14T20:40:04.530Z,67.50
2018-07-14T20:42:32.651Z,67.80
2018-07-14T20:45:00.835Z,68.90
2018-07-14T20:47:29.277Z,69.60
2018-07-14T20:49:57.372Z,69.10
2018-07-14T20:52:25.519Z,69.20
2018-07-14T20:54:53.595Z,69.50
2018-07-14T20:57:21.675Z,69.60
2018-07-14T20:59:49.766Z,69.50
2018-07-14T21:02:17.826Z,70.40
2018-07-14T21:04:45.928Z,69.90
2018-07-14T21:07:14.167Z,70.30
2018-07-14T21:09:42.289Z,70.40
2018-07-14T21:12:10.407Z,70.60
2018-07-14T21:14:38.494Z,71.70
2018-07-14T21:17:06.566Z,71.10
2018-07-14T21:19:34.873Z,71.30
2018-07-14T21:24:31.925Z,72.10
2018-07-14T21:27:00.019Z,72.70
2018-07-14T21:29:28.244Z,72.70
2018-07-14T21:31:56.418Z,72.90
2018-07-14T21:34:24.521Z,73.20
2018-07-14T21:36:52.718Z,73.10
2018-07-14T21:39:20.894Z,74.20
2018-07-14T21:41:49.230Z,73.30
2018-07-14T21:44:17.957Z,73.10
2018-07-14T21:46:46.030Z,73.30
2018-07-14T21:49:14.254Z,73.60
2018-07-14T21:51:42.325Z,74.00
2018-07-14T21:56:38.315Z,74.20
2018-07-14T21:59:06.463Z,74.20
2018-07-14T22:01:40.276Z,75.20
2018-07-14T22:04:08.614Z,75.00
2018-07-14T22:06:36.735Z,74.90
2018-07-14T22:09:05.683Z,74.90
2018-07-14T22:11:34.147Z,74.90
2018-07-14T22:14:02.595Z,75.10
2018-07-14T22:16:30.680Z,75.30
2018-07-14T22:18:58.897Z,75.20
2018-07-14T22:21:27.051Z,75.30
2018-07-14T22:23:55.178Z,75.50
2018-07-14T22:26:23.295Z,75.60
2018-07-14T22:31:19.331Z,75.80
2018-07-14T22:33:47.420Z,75.70
2018-07-14T22:38:43.806Z,76.10
2018-07-14T22:41:11.863Z,75.90
2018-07-14T22:43:39.947Z,76.20
2018-07-14T22:46:08.125Z,76.10
2018-07-14T22:48:36.333Z,76.00
2018-07-14T22:51:04.415Z,76.10
2018-07-14T22:53:32.580Z,76.10
2018-07-14T22:56:00.759Z,76.00
2018-07-14T22:58:29.005Z,76.10
2018-07-14T23:00:57.065Z,76.20
2018-07-14T23:03:25.379Z,76.10
2018-07-14T23:05:53.482Z,76.00
2018-07-14T23:08:21.654Z,76.00
2018-07-14T23:10:49.742Z,76.30
2018-07-14T23:13:19.004Z,76.30
2018-07-14T23:15:47.763Z,76.20
2018-07-14T23:18:15.834Z,77.40
2018-07-14T23:20:43.924Z,76.80
2018-07-14T23:23:12.051Z,77.10
2018-07-14T23:25:40.169Z,77.20
2018-07-14T23:28:08.530Z,77.20
2018-07-14T23:30:36.722Z,77.20
2018-07-14T23:33:04.813Z,77.90
2018-07-14T23:35:32.954Z,77.10
2018-07-14T23:38:01.345Z,77.30
2018-07-14T23:40:29.642Z,77.40
2018-07-14T23:42:57.710Z,77.20
2018-07-14T23:45:25.827Z,77.10
2018-07-14T23:47:53.889Z,77.10
2018-07-14T23:50:21.982Z,77.00
2018-07-14T23:52:50.074Z,76.80
2018-07-14T23:55:18.156Z,76.80
2018-07-14T23:57:46.241Z,76.70
